Time;durP1;ratioP1;P1;durP2;ratioP2;P2;SDS_P1;SDS_P2;PMS_P1;PMS_P2;Temp;Humidity;BMP_temperature;BMP_pressure;BME280_temperature;BME280_humidity;BME280_pressure;Samples;Min_cycle;Max_cycle;Signal;HPM_P1;HPM_P2
2021/07/20 00:02:10;;;;;;;6.07;2.72;;;14.90;82.90;;;17.73;69.89;102096.56;5037374;27;97703;-72
2021/07/20 00:04:39;;;;;;;1.45;0.88;;;14.90;82.90;;;17.70;69.53;102077.41;5030833;27;96969;-72
2021/07/20 00:07:08;;;;;;;2.72;1.98;;;14.90;82.80;;;17.66;70.46;102084.59;5022482;27;97634;-71
2021/07/20 00:09:37;;;;;;;7.72;1.27;;;14.80;82.80;;;17.57;69.99;102084.56;5035163;27;97613;-71
2021/07/20 00:12:07;;;;;;;7.57;1.55;;;14.80;82.80;;;17.51;70.64;102082.31;5035275;27;97639;-72
2021/07/20 00:14:37;;;;;;;2.45;1.83;;;14.80;82.80;;;17.44;69.77;102079.25;5036323;27;96787;-72
2021/07/20 00:17:07;;;;;;;0.75;0.63;;;14.70;82.80;;;17.39;70.13;102079.41;5022245;27;97099;-72
2021/07/20 00:19:36;;;;;;;1.73;1.55;;;14.70;82.90;;;17.42;70.31;102076.06;5037160;27;97829;-71
2021/07/20 00:22:05;;;;;;;1.27;1.17;;;14.60;83.00;;;17.40;69.76;102076.38;5035853;27;97777;-71
2021/07/20 00:24:35;;;;;;;0.60;0.60;;;14.60;83.00;;;17.37;70.72;102070.81;5040615;27;96811;-72
2021/07/20 00:27:06;;;;;;;3.22;1.15;;;14.60;83.00;;;17.33;70.21;102073.31;5034083;27;97806;-72
2021/07/20 00:29:37;;;;;;;2.88;0.95;;;14.60;83.00;;;17.33;69.85;102070.63;5033325;27;97843;-71
2021/07/20 00:32:08;;;;;;;0.80;0.80;;;14.50;83.00;;;17.31;69.87;102072.81;5032286;27;98690;-71
2021/07/20 00:34:38;;;;;;;1.67;1.33;;;14.50;83.00;;;17.29;69.54;102076.97;5041389;27;97092;-71
2021/07/20 00:37:08;;;;;;;2.72;1.55;;;14.50;83.00;;;17.31;69.47;102075.53;5037209;27;97074;-71
2021/07/20 00:39:37;;;;;;;1.23;1.23;;;14.50;83.00;;;17.27;70.22;102075.66;5033424;27;97061;-72
2021/07/20 00:42:07;;;;;;;2.40;1.77;;;14.40;82.90;;;17.20;70.56;102078.81;5034786;27;96818;-71
2021/07/20 00:44:37;;;;;;;2.40;1.88;;;14.40;82.90;;;17.15;70.88;102086.31;5026980;27;96855;-71
2021/07/20 00:47:06;;;;;;;0.43;0.43;;;14.40;83.00;;;17.15;70.11;102078.19;5037840;27;96832;-71
2021/07/20 00:49:35;;;;;;;2.70;1.52;;;14.30;83.00;;;17.10;70.27;102083.72;5016116;27;98077;-72
2021/07/20 00:52:06;;;;;;;2.00;1.85;;;14.30;83.00;;;17.15;70.43;102080.91;5034081;27;96741;-72
2021/07/20 00:54:36;;;;;;;0.60;0.52;;;14.30;83.00;;;17.09;69.92;102076.69;5032815;27;96871;-72
2021/07/20 00:57:06;;;;;;;1.50;0.90;;;14.20;83.00;;;17.06;69.81;102077.31;5041633;27;97554;-72
2021/07/20 00:59:42;;;;;;;6.22;3.25;;;14.20;83.10;;;16.97;70.29;102080.03;5039459;27;98132;-72
2021/07/20 01:02:13;;;;;;;1.27;1.13;;;14.20;83.20;;;16.88;70.87;102079.16;5038478;27;97816;-72
2021/07/20 01:04:43;;;;;;;3.35;1.88;;;14.10;83.20;;;16.84;70.25;102074.69;5035683;27;97963;-72
2021/07/20 01:07:12;;;;;;;1.65;0.88;;;14.10;83.30;;;16.89;70.60;102071.84;5033710;27;96870;-72
2021/07/20 01:09:44;;;;;;;0.55;0.55;;;14.00;83.30;;;16.77;70.38;102067.00;5030888;27;97742;-72
2021/07/20 01:12:16;;;;;;;3.25;1.77;;;14.00;83.30;;;16.74;70.52;102072.22;5031887;27;98430;-72
2021/07/20 01:14:59;;;;;;;1.50;1.40;;;14.00;83.40;;;16.68;70.56;102065.34;5018128;27;96846;-71
2021/07/20 01:17:35;;;;;;;2.03;1.90;;;13.90;83.40;;;16.65;71.04;102065.97;5021286;27;96919;-71
2021/07/20 01:20:11;;;;;;;0.35;0.32;;;13.90;83.40;;;16.65;70.38;102072.16;5036574;27;97868;-71
2021/07/20 01:22:51;;;;;;;2.17;1.15;;;13.90;83.40;;;16.63;69.98;102068.19;5033784;27;96835;-72
2021/07/20 01:25:24;;;;;;;2.92;1.85;;;13.80;83.40;;;16.55;71.08;102060.84;5036372;27;97486;-72
2021/07/20 01:28:02;;;;;;;1.95;0.93;;;13.80;83.50;;;16.57;70.32;102069.44;5034747;27;97352;-71
2021/07/20 01:30:34;;;;;;;1.88;0.52;;;13.80;83.50;;;16.45;71.00;102064.59;5035009;27;96994;-72
2021/07/20 01:33:07;;;;;;;0.87;0.87;;;13.70;83.40;;;16.44;71.00;102071.09;5033606;27;97144;-72
2021/07/20 01:35:38;;;;;;;0.80;0.80;;;13.70;83.50;;;16.48;70.76;102071.25;5030295;27;97116;-72
2021/07/20 01:38:11;;;;;;;2.65;2.30;;;13.70;83.50;;;16.47;70.68;102077.78;5025351;27;97706;-72
2021/07/20 01:40:43;;;;;;;1.00;0.98;;;13.70;83.50;;;16.37;70.54;102070.75;5037946;27;97833;-71
2021/07/20 01:43:14;;;;;;;1.88;1.20;;;13.60;83.50;;;16.39;70.55;102076.66;5042861;27;96912;-71
2021/07/20 01:45:50;;;;;;;1.70;1.17;;;13.60;83.50;;;16.35;70.12;102072.94;5040930;27;97088;-71
2021/07/20 01:48:22;;;;;;;10.05;2.10;;;13.60;83.50;;;16.30;70.18;102074.94;5020999;27;96906;-71
2021/07/20 01:50:53;;;;;;;3.65;1.90;;;13.60;83.60;;;16.27;71.09;102067.44;5036287;27;97915;-71
2021/07/20 01:53:24;;;;;;;3.20;2.65;;;13.50;83.60;;;16.26;70.38;102071.25;5036012;27;97720;-71
2021/07/20 01:55:56;;;;;;;1.85;1.35;;;13.50;83.60;;;16.27;70.36;102075.56;5026141;27;96851;-71
2021/07/20 01:58:26;;;;;;;2.20;1.08;;;13.50;83.60;;;16.24;71.16;102076.97;5035668;27;97247;-72
2021/07/20 02:01:27;;;;;;;1.40;1.10;;;13.50;83.60;;;16.17;70.92;102071.19;5027898;27;97820;-71
2021/07/20 02:04:20;;;;;;;1.48;1.10;;;13.40;83.60;;;16.16;70.19;102076.88;5033853;27;98076;-71
2021/07/20 02:09:42;;;;;;;1.05;1.02;;;13.30;83.60;;;16.08;70.83;102083.84;5052369;27;98459;-71
2021/07/20 02:12:16;;;;;;;0.70;0.70;;;13.30;83.70;;;16.03;71.15;102083.16;5050212;27;98633;-71
2021/07/20 02:15:09;;;;;;;0.77;0.77;;;13.30;83.70;;;15.97;70.28;102079.75;5025199;27;97685;-71
2021/07/20 02:17:57;;;;;;;0.85;0.85;;;13.30;83.70;;;15.96;70.52;102075.44;5023971;27;97057;-71
2021/07/20 02:20:32;;;;;;;1.05;0.95;;;13.20;83.70;;;15.95;70.91;102081.19;5037620;27;97302;-72
2021/07/20 02:23:09;;;;;;;1.48;1.38;;;13.20;83.70;;;15.97;70.58;102076.25;5040246;27;97918;-71
2021/07/20 02:25:41;;;;;;;2.65;1.90;;;13.20;83.80;;;15.97;71.16;102084.38;5036103;27;97692;-71
2021/07/20 02:28:29;;;;;;;1.52;0.32;;;13.20;83.80;;;15.93;70.35;102080.69;5042705;27;96772;-71
2021/07/20 02:31:03;;;;;;;3.22;1.33;;;13.10;83.70;;;15.94;70.22;102085.78;5035888;27;96975;-71
2021/07/20 02:33:36;;;;;;;1.08;0.65;;;13.10;83.80;;;15.92;70.91;102081.78;5025038;27;97675;-71
2021/07/20 02:36:09;;;;;;;1.48;1.38;;;13.10;83.80;;;15.91;70.21;102085.56;5043040;27;97855;-71
2021/07/20 02:38:41;;;;;;;1.13;0.98;;;13.10;83.80;;;15.91;70.32;102082.88;5038128;27;96804;-71
2021/07/20 02:41:16;;;;;;;1.33;1.15;;;13.10;83.70;;;15.86;70.18;102077.56;5040274;27;97643;-71
2021/07/20 02:43:51;;;;;;;0.47;0.47;;;13.10;83.70;;;15.84;70.29;102079.78;5040545;27;97857;-71
2021/07/20 02:46:23;;;;;;;0.22;0.22;;;13.10;84.30;;;15.84;70.57;102079.78;5039852;27;97835;-71
2021/07/20 02:48:53;;;;;;;5.13;2.72;;;13.10;83.80;;;15.88;70.42;102078.06;5035344;27;97442;-71
2021/07/20 02:51:27;;;;;;;1.63;1.53;;;13.10;83.80;;;15.84;70.06;102086.00;5039832;27;96847;-71
2021/07/20 02:54:00;;;;;;;;;;;13.00;83.70;;;15.86;70.58;102093.78;5038274;27;96915;-71
2021/07/20 02:56:33;;;;;;;2.72;2.10;;;13.00;83.80;;;15.90;70.28;102086.66;5045104;27;99636;-71
2021/07/20 02:59:06;;;;;;;7.38;1.23;;;13.00;83.80;;;15.96;70.42;102086.25;5020030;27;96773;-71
2021/07/20 03:02:00;;;;;;;0.17;0.17;;;13.00;83.80;;;16.00;70.39;102084.53;5040074;27;96917;-71
2021/07/20 03:04:33;;;;;;;0.52;0.52;;;13.00;83.80;;;16.06;70.04;102080.66;5022218;27;97102;-72
2021/07/20 03:07:12;;;;;;;0.08;0.08;;;13.10;83.90;;;16.16;69.84;102095.81;5022732;27;101035;-71
2021/07/20 03:09:52;;;;;;;2.03;1.75;;;13.10;83.80;;;16.24;69.53;102093.19;5044579;27;96621;-71
2021/07/20 03:12:26;;;;;;;0.20;0.20;;;13.20;83.80;;;16.27;68.92;102094.50;5044217;27;100526;-71
2021/07/20 03:15:01;;;;;;;2.17;1.75;;;13.20;83.80;;;16.36;68.64;102089.97;5037544;27;97806;-71
2021/07/20 03:17:48;;;;;;;0.80;0.80;;;13.20;83.70;;;16.43;69.18;102091.16;5029062;27;97673;-71
2021/07/20 03:20:19;;;;;;;0.93;0.93;;;13.30;83.70;;;16.48;69.63;102099.13;5040654;27;97009;-71
2021/07/20 03:22:52;;;;;;;0.52;0.52;;;13.30;83.60;;;16.52;68.84;102088.50;5036396;27;96992;-71
2021/07/20 03:25:23;;;;;;;6.22;1.10;;;13.40;83.60;;;16.58;69.13;102089.97;5039773;27;96810;-71
2021/07/20 03:27:55;;;;;;;1.10;0.95;;;13.50;83.50;;;16.66;69.06;102095.41;5043517;27;96967;-71
2021/07/20 03:30:34;;;;;;;0.52;0.52;;;13.50;83.40;;;16.73;68.27;102090.41;5025764;27;97165;-71
2021/07/20 03:33:12;;;;;;;3.50;1.55;;;13.50;83.30;;;16.71;68.26;102089.91;5037263;27;96873;-72
2021/07/20 03:36:17;;;;;;;1.15;1.10;;;13.60;83.30;;;16.76;69.27;102089.78;5023958;27;97289;-71
2021/07/20 03:38:54;;;;;;;2.00;1.10;;;13.60;83.20;;;16.76;69.01;102087.06;5038854;27;97676;-71
2021/07/20 03:41:28;;;;;;;2.40;0.55;;;13.60;83.20;;;16.78;68.43;102090.25;5021188;27;97160;-71
2021/07/20 03:43:58;;;;;;;7.07;2.20;;;13.70;83.20;;;16.75;68.62;102098.19;5035493;27;96892;-71
2021/07/20 03:46:32;;;;;;;;;;;13.70;83.20;;;16.82;68.72;102098.56;5031409;27;98148;-71
2021/07/20 03:49:06;;;;;;;0.43;0.43;;;13.70;83.10;;;16.81;68.77;102095.06;5034034;27;96840;-71
2021/07/20 03:51:49;;;;;;;0.70;0.70;;;13.70;83.10;;;16.86;68.85;102091.41;5037612;27;97357;-71
2021/07/20 03:54:21;;;;;;;;;;;13.80;83.10;;;16.95;69.13;102086.84;5041101;27;96756;-71
2021/07/20 03:56:53;;;;;;;8.25;1.27;;;13.80;83.30;;;17.08;68.81;102091.34;5032745;27;97938;-71
2021/07/20 03:59:26;;;;;;;1.58;1.35;;;13.80;83.00;;;17.20;68.37;102091.59;5033831;27;97361;-71
2021/07/20 04:02:33;;;;;;;0.40;0.40;;;13.90;83.00;;;17.27;67.55;102083.78;5033865;27;96855;-71
2021/07/20 04:05:13;;;;;;;3.30;0.60;;;14.00;82.90;;;17.33;68.33;102095.00;5039606;27;96990;-72
2021/07/20 04:07:45;;;;;;;3.58;3.10;;;14.10;82.90;;;17.41;67.25;102090.72;5021304;27;97706;-72
2021/07/20 04:10:16;;;;;;;;;;;14.10;82.80;;;17.50;68.12;102095.06;5017267;27;96959;-72
2021/07/20 04:13:14;;;;;;;2.55;2.00;;;14.10;82.70;;;17.56;67.89;102096.53;5041328;27;97428;-72
2021/07/20 04:15:49;;;;;;;0.70;0.70;;;14.20;82.60;;;17.65;67.03;102091.91;5035905;27;96954;-72
2021/07/20 04:18:24;;;;;;;0.22;0.22;;;14.20;82.50;;;17.74;67.07;102089.22;5033989;27;96897;-72
2021/07/20 04:20:54;;;;;;;3.83;1.75;;;14.30;82.50;;;17.86;67.18;102092.09;5039977;27;97714;-72
2021/07/20 04:23:24;;;;;;;1.27;0.95;;;14.40;82.40;;;17.86;66.63;102101.03;5020753;27;97331;-72
2021/07/20 04:26:04;;;;;;;0.20;0.20;;;14.40;82.30;;;17.93;66.97;102097.88;5039833;27;97250;-72
2021/07/20 04:28:36;;;;;;;0.98;0.98;;;14.50;82.30;;;18.00;67.00;102087.34;5035473;27;99255;-72
2021/07/20 04:31:12;;;;;;;2.78;1.58;;;14.60;82.30;;;18.12;66.87;102082.88;5040408;27;98146;-72
2021/07/20 04:33:47;;;;;;;0.28;0.28;;;14.60;82.20;;;18.15;66.27;102084.13;5033655;27;96927;-72
2021/07/20 04:36:57;;;;;;;3.78;2.03;;;14.70;82.10;;;18.17;66.70;102081.94;4967651;28;96939;-72
2021/07/20 04:39:39;;;;;;;1.95;1.85;;;14.80;82.00;;;18.29;66.37;102084.81;5021444;27;98332;-72
2021/07/20 04:42:15;;;;;;;9.57;3.10;;;14.80;81.90;;;18.30;66.49;102086.41;5053216;27;97746;-72
2021/07/20 04:44:44;;;;;;;3.25;1.70;;;14.90;81.90;;;18.32;66.76;102086.91;5035924;27;97226;-72
2021/07/20 04:47:35;;;;;;;6.88;1.77;;;14.90;81.80;;;18.37;66.85;102090.25;5043977;27;97267;-71
2021/07/20 04:50:19;;;;;;;1.55;1.45;;;15.00;81.80;;;18.49;66.63;102090.38;5037759;27;97714;-72
2021/07/20 04:52:50;;;;;;;1.67;1.30;;;15.10;81.80;;;18.69;65.94;102084.28;5017661;27;97708;-72
2021/07/20 04:55:20;;;;;;;3.17;1.77;;;15.10;81.60;;;18.84;66.08;102083.75;5024591;27;97906;-71
2021/07/20 04:57:51;;;;;;;3.88;2.45;;;15.30;81.50;;;18.97;65.71;102085.50;5025867;27;97212;-71
2021/07/20 05:00:20;;;;;;;17.73;2.70;;;15.40;81.40;;;19.16;65.23;102092.16;5038682;27;96892;-71
2021/07/20 05:02:50;;;;;;;3.10;1.40;;;15.50;81.20;;;19.26;64.81;102088.28;5042514;27;97668;-71
2021/07/20 05:05:25;;;;;;;1.13;0.95;;;15.60;81.00;;;19.34;65.54;102096.38;5044499;27;96888;-71
2021/07/20 05:08:01;;;;;;;6.50;0.77;;;15.70;80.90;;;19.39;65.45;102095.41;5036706;27;97322;-71
2021/07/20 05:10:39;;;;;;;2.30;1.25;;;15.80;80.80;;;19.46;65.22;102093.78;5035115;27;97291;-71
2021/07/20 05:13:17;;;;;;;3.63;2.35;;;15.90;80.90;;;19.58;65.05;102102.03;5031350;27;97034;-71
2021/07/20 05:15:49;;;;;;;0.17;0.17;;;16.00;80.90;;;19.73;64.60;102100.66;5042593;27;97198;-71
2021/07/20 05:18:20;;;;;;;1.48;1.10;;;16.10;80.80;;;19.84;64.57;102099.94;5027262;27;97140;-72
2021/07/20 05:20:59;;;;;;;9.70;1.40;;;16.10;80.70;;;19.98;64.15;102102.41;5028540;27;96965;-72
2021/07/20 05:23:35;;;;;;;0.40;0.40;;;16.30;80.70;;;20.18;64.20;102097.00;5042230;27;97826;-72
2021/07/20 05:26:26;;;;;;;2.00;1.75;;;16.40;80.50;;;20.35;63.91;102104.22;5039586;27;96975;-72
2021/07/20 05:28:56;;;;;;;3.53;2.05;;;16.50;80.40;;;20.54;63.88;102099.09;5031621;27;97151;-72
2021/07/20 05:31:27;;;;;;;3.63;1.65;;;16.70;80.30;;;20.70;63.61;102106.28;5042280;27;98123;-72
2021/07/20 05:33:57;;;;;;;2.10;1.20;;;16.80;80.10;;;20.86;62.80;102099.09;5016810;27;98751;-72
2021/07/20 05:36:28;;;;;;;1.92;1.75;;;16.90;80.00;;;20.99;62.94;102101.50;5043446;27;96959;-72
2021/07/20 05:38:58;;;;;;;6.22;1.77;;;17.00;79.80;;;21.13;63.50;102093.81;5041124;27;97149;-72
2021/07/20 05:41:46;;;;;;;3.40;2.67;;;17.10;79.70;;;21.24;62.34;102100.41;5057369;27;96865;-72
2021/07/20 05:44:17;;;;;;;22.92;1.90;;;17.30;79.60;;;21.31;63.16;102103.34;5039346;27;97719;-72
2021/07/20 05:46:50;;;;;;;9.40;2.28;;;17.40;79.50;;;21.52;62.11;102104.03;5025199;27;97053;-72
2021/07/20 05:49:19;;;;;;;1.15;1.05;;;17.50;79.50;;;21.62;62.64;102106.38;5038827;27;96972;-72
2021/07/20 05:51:51;;;;;;;1.23;1.13;;;17.60;79.40;;;21.75;62.48;102105.19;5038168;27;96958;-72
2021/07/20 05:54:25;;;;;;;1.95;1.55;;;17.70;79.30;;;21.91;62.33;102108.00;5022339;27;96857;-72
2021/07/20 05:57:12;;;;;;;3.42;2.53;;;17.90;79.30;;;22.17;61.52;102106.47;5040420;27;96868;-72
2021/07/20 05:59:51;;;;;;;2.30;1.15;;;18.10;79.10;;;22.42;61.53;102099.81;5039496;27;96934;-72
2021/07/20 06:02:36;;;;;;;0.87;0.80;;;18.30;78.90;;;22.76;60.88;102110.91;5039525;27;97616;-71
2021/07/20 06:05:12;;;;;;;3.28;0.98;;;18.50;78.60;;;23.20;59.93;102093.31;5040821;27;97626;-71
2021/07/20 06:07:45;;;;;;;6.32;1.70;;;18.80;78.20;;;23.51;59.63;102103.47;5039090;27;98618;-72
2021/07/20 06:10:20;;;;;;;6.13;4.07;;;19.10;77.80;;;23.76;59.55;102115.78;5040174;27;97011;-72
2021/07/20 06:12:52;;;;;;;1.92;0.93;;;19.40;77.50;;;24.01;59.28;102109.72;5036834;27;97907;-72
2021/07/20 06:15:23;;;;;;;0.43;0.43;;;19.50;77.40;;;24.22;59.28;102113.69;5041778;27;97684;-72
2021/07/20 06:17:52;;;;;;;0.57;0.57;;;19.70;77.30;;;24.50;58.83;102113.50;5035637;27;96870;-72
2021/07/20 06:20:20;;;;;;;1.75;0.63;;;20.00;77.30;;;24.87;58.25;102114.63;5022717;28;97198;-72
2021/07/20 06:22:56;;;;;;;5.97;0.98;;;20.20;77.00;;;25.02;58.70;102121.94;5038838;27;98538;-72
2021/07/20 06:25:32;;;;;;;2.53;1.38;;;20.40;76.80;;;25.10;58.87;102126.41;5034436;27;98358;-72
2021/07/20 06:28:06;;;;;;;3.70;2.22;;;20.60;76.90;;;25.27;58.38;102126.72;5038156;27;96956;-72
2021/07/20 06:30:40;;;;;;;2.45;1.65;;;20.70;76.80;;;25.38;58.63;102119.44;5022629;27;96885;-75
2021/07/20 06:33:12;;;;;;;11.10;1.80;;;20.90;76.70;;;25.62;58.62;102127.28;5033496;27;98452;-75
2021/07/20 06:35:44;;;;;;;;;;;21.10;76.60;;;25.77;57.95;102123.56;5041485;27;97713;-74
2021/07/20 06:38:20;;;;;;;0.90;0.85;;;21.20;76.40;;;25.96;58.03;102127.03;5034036;27;97194;-75
2021/07/20 06:40:52;;;;;;;0.95;0.47;;;21.40;76.30;;;26.03;58.59;102129.09;5041122;27;96904;-74
2021/07/20 06:43:23;;;;;;;1.65;1.55;;;21.50;76.20;;;25.96;59.00;102129.00;5036051;27;97947;-73
2021/07/20 06:45:53;;;;;;;2.80;0.85;;;21.60;76.30;;;25.87;59.23;102125.72;5038785;27;97785;-74
2021/07/20 06:48:23;;;;;;;1.02;0.95;;;21.60;76.70;;;25.78;60.21;102127.91;5040643;27;97078;-74
2021/07/20 06:50:54;;;;;;;2.25;1.35;;;21.50;76.80;;;25.63;60.62;102126.13;5040120;27;96947;-75
2021/07/20 06:53:24;;;;;;;0.95;0.77;;;21.50;77.00;;;25.55;60.64;102127.19;5039203;27;97515;-75
2021/07/20 06:55:58;;;;;;;0.43;0.43;;;21.50;77.30;;;25.57;60.93;102132.28;5035433;27;97243;-75
2021/07/20 06:58:31;;;;;;;2.60;1.17;;;21.50;77.50;;;25.58;61.01;102127.22;5036093;27;97262;-71
2021/07/20 07:01:06;;;;;;;6.93;1.60;;;21.50;77.50;;;25.51;61.50;102128.28;5035769;27;96959;-71
2021/07/20 07:03:44;;;;;;;1.27;1.17;;;21.50;77.50;;;25.47;61.63;102128.22;5035792;27;98124;-72
2021/07/20 07:06:17;;;;;;;1.08;1.00;;;21.50;77.50;;;25.59;61.47;102128.03;5025426;27;97674;-73
2021/07/20 07:08:48;;;;;;;3.15;2.88;;;21.60;77.70;;;25.66;61.35;102133.63;5039191;27;97142;-72
2021/07/20 07:11:17;;;;;;;2.53;0.63;;;21.60;77.60;;;25.62;60.83;102138.28;5039161;27;96889;-72
2021/07/20 07:13:47;;;;;;;1.45;0.80;;;21.60;77.50;;;25.71;61.47;102142.34;5043231;27;96660;-72
2021/07/20 07:16:19;;;;;;;5.43;2.33;;;21.60;77.50;;;25.67;60.92;102137.94;5033822;27;97317;-73
2021/07/20 07:18:49;;;;;;;0.90;0.77;;;21.70;77.50;;;25.70;61.05;102142.69;5036712;27;96727;-73
2021/07/20 07:21:20;;;;;;;2.50;1.17;;;21.70;77.60;;;25.83;61.42;102141.38;5033225;27;97182;-73
2021/07/20 07:23:53;;;;;;;1.10;1.00;;;21.70;77.50;;;25.87;61.00;102142.22;5038130;27;97867;-72
2021/07/20 07:26:23;;;;;;;2.63;1.95;;;21.80;77.50;;;25.92;60.96;102141.88;5033290;27;97482;-73
2021/07/20 07:28:54;;;;;;;7.15;1.02;;;21.80;77.40;;;25.85;60.96;102144.53;5036819;27;96899;-73
2021/07/20 07:31:23;;;;;;;0.20;0.20;;;21.90;77.30;;;25.85;61.31;102144.53;5030959;27;97401;-74
2021/07/20 07:33:52;;;;;;;0.10;0.10;;;21.90;77.10;;;26.05;60.53;102145.97;5029830;27;97903;-72
2021/07/20 07:36:24;;;;;;;1.05;0.70;;;21.90;77.30;;;26.54;59.97;102152.94;5034768;27;96800;-74
2021/07/20 07:38:58;;;;;;;1.25;0.63;;;22.10;77.10;;;27.73;57.06;102140.34;5034549;27;96732;-73
2021/07/20 07:41:28;;;;;;;0.85;0.85;;;22.60;76.60;;;30.34;51.11;102117.06;5038782;27;96972;-74
2021/07/20 07:43:58;;;;;;;3.13;0.98;;;23.60;75.20;;;31.24;49.63;102146.19;5034514;27;97939;-74
2021/07/20 07:46:30;;;;;;;1.75;0.95;;;24.50;73.10;;;32.18;48.86;102134.22;5035775;27;97700;-73
2021/07/20 07:49:01;;;;;;;10.65;1.25;;;25.30;72.40;;;32.07;50.10;102141.06;5043119;27;96788;-73
2021/07/20 07:51:33;;;;;;;;;;;25.80;72.10;;;32.49;49.99;102133.78;5038114;27;97449;-73
2021/07/20 07:54:05;;;;;;;1.45;0.95;;;26.30;71.80;;;33.36;48.99;102133.72;5039739;27;98042;-73
2021/07/20 07:56:38;;;;;;;2.17;1.40;;;26.90;71.50;;;33.49;49.32;102138.25;5035109;27;97754;-73
2021/07/20 07:59:11;;;;;;;0.55;0.55;;;27.30;71.40;;;33.09;51.16;102132.94;5034252;27;100364;-73
2021/07/20 08:01:46;;;;;;;1.20;0.85;;;27.40;71.30;;;33.11;51.45;102139.63;5034815;27;97010;-73
2021/07/20 08:04:22;;;;;;;0.20;0.20;;;27.50;71.60;;;32.96;52.39;102141.06;5037210;27;96894;-73
2021/07/20 08:06:52;;;;;;;0.45;0.35;;;27.60;72.00;;;34.24;49.22;102134.44;5035383;27;96943;-73
2021/07/20 08:09:27;;;;;;;1.10;1.02;;;27.70;72.10;;;32.81;53.27;102136.16;5039906;27;96919;-73
2021/07/20 08:11:59;;;;;;;0.45;0.28;;;27.70;72.40;;;32.02;55.60;102145.06;5041160;27;97696;-73
2021/07/20 08:14:30;;;;;;;1.75;1.08;;;27.50;73.00;;;31.55;56.82;102143.16;5033311;27;97942;-74
2021/07/20 08:17:05;;;;;;;1.95;0.95;;;27.30;73.40;;;30.92;58.28;102146.38;5033388;27;97096;-72
2021/07/20 08:19:39;;;;;;;1.65;1.25;;;27.00;73.80;;;30.36;59.31;102142.34;5041768;27;97517;-73
2021/07/20 08:22:11;;;;;;;0.28;0.28;;;26.70;74.30;;;30.07;59.88;102138.13;5011823;27;96841;-72
2021/07/20 08:24:54;;;;;;;1.00;0.90;;;26.40;74.60;;;29.75;60.13;102135.41;5033452;27;98955;-73
2021/07/20 08:27:34;;;;;;;4.88;0.95;;;26.10;74.60;;;29.46;60.51;102128.34;5031814;27;97810;-72
2021/07/20 08:30:08;;;;;;;0.73;0.73;;;25.90;74.80;;;29.23;60.97;102135.41;5032185;27;96804;-73
2021/07/20 08:32:48;;;;;;;1.65;0.75;;;25.60;75.20;;;29.19;60.63;102138.16;5042121;27;97000;-73
2021/07/20 08:35:26;;;;;;;0.10;0.10;;;25.40;75.30;;;29.32;60.16;102142.13;5038150;27;99024;-73
2021/07/20 08:38:07;;;;;;;0.40;0.40;;;25.40;75.30;;;30.68;56.25;102141.03;5034607;27;96909;-73
2021/07/20 08:40:55;;;;;;;0.95;0.85;;;25.50;75.00;;;34.70;46.05;102147.38;5003528;27;96889;-73
2021/07/20 08:43:50;;;;;;;1.45;0.57;;;26.00;74.50;;;33.01;51.55;102148.13;5036159;27;97467;-73
2021/07/20 08:46:39;;;;;;;20.35;1.48;;;26.60;73.60;;;31.81;55.05;102147.28;5040413;27;97493;-73
2021/07/20 08:49:37;;;;;;;18.02;1.48;;;26.70;73.50;;;31.32;56.21;102158.78;5035549;27;97731;-73
2021/07/20 08:52:16;;;;;;;0.40;0.40;;;26.70;73.60;;;31.22;56.46;102157.69;5042137;27;96695;-73
2021/07/20 08:54:56;;;;;;;2.97;0.98;;;26.60;73.70;;;31.84;54.74;102149.22;5039712;27;96787;-73
2021/07/20 08:57:36;;;;;;;0.65;0.60;;;26.60;73.50;;;36.81;43.76;102155.22;5040983;27;97878;-73
2021/07/20 09:00:12;;;;;;;1.60;1.10;;;27.30;73.40;;;35.61;47.73;102162.69;5037512;27;97463;-74
2021/07/20 09:02:52;;;;;;;0.57;0.57;;;27.90;73.10;;;33.52;53.36;102158.84;5036735;27;96811;-74
2021/07/20 09:05:30;;;;;;;1.48;0.90;;;28.10;73.40;;;32.39;56.36;102158.13;5036414;27;97180;-75
2021/07/20 09:08:05;;;;;;;1.73;1.25;;;27.80;73.50;;;31.83;58.02;102159.56;5037080;27;98133;-75
2021/07/20 09:10:47;;;;;;;1.15;1.00;;;27.70;74.10;;;31.38;58.07;102163.50;5033407;27;100249;-74
2021/07/20 09:13:28;;;;;;;2.37;0.30;;;27.40;73.70;;;32.84;54.21;102168.66;5025855;27;97474;-75
2021/07/20 09:16:11;;;;;;;1.05;0.70;;;27.30;74.10;;;32.42;55.43;102158.06;5037826;27;97130;-74
2021/07/20 09:18:50;;;;;;;1.05;0.75;;;27.40;74.20;;;32.07;56.13;102168.81;5037515;27;97100;-73
2021/07/20 09:21:24;;;;;;;2.05;0.55;;;27.40;73.90;;;31.95;56.35;102170.09;5035683;27;97789;-76
2021/07/20 09:24:07;;;;;;;0.88;0.73;;;27.30;73.90;;;31.30;57.65;102164.75;5017566;27;97214;-75
2021/07/20 09:26:44;;;;;;;;;;;27.10;73.90;;;30.94;58.70;102157.88;5036357;27;96888;-76
2021/07/20 09:29:22;;;;;;;1.25;0.85;;;26.90;73.90;;;30.87;58.84;102162.66;5021812;27;97703;-75
2021/07/20 09:32:28;;;;;;;0.45;0.32;;;26.80;74.60;;;30.77;58.76;102164.31;5031837;27;97803;-75
2021/07/20 09:35:15;;;;;;;3.92;1.30;;;26.60;74.10;;;30.73;58.34;102157.19;5036663;27;96750;-74
2021/07/20 09:38:04;;;;;;;0.63;0.63;;;26.50;74.40;;;30.73;58.48;102173.03;5034989;27;96629;-74
2021/07/20 09:40:48;;;;;;;1.55;0.77;;;26.50;74.50;;;30.87;58.18;102171.75;5038792;27;97872;-74
2021/07/20 09:43:30;;;;;;;;;;;26.50;74.60;;;30.94;57.81;102168.16;5026573;27;98562;-74
2021/07/20 09:46:07;;;;;;;1.55;0.75;;;26.40;74.90;;;30.81;57.95;102167.84;5036435;27;97259;-75
2021/07/20 09:48:51;;;;;;;0.30;0.30;;;26.50;74.40;;;30.84;57.90;102163.47;5042647;27;97606;-74
2021/07/20 09:52:09;;;;;;;9.02;0.32;;;26.50;74.30;;;31.33;56.48;102168.69;5032153;27;98110;-75
2021/07/20 09:55:06;;;;;;;2.92;1.27;;;26.60;73.50;;;32.73;52.88;102162.47;5035442;27;98185;-74
2021/07/20 09:57:51;;;;;;;2.00;1.48;;;26.80;73.70;;;33.28;52.00;102157.25;5035607;27;97661;-75
2021/07/20 10:00:30;;;;;;;17.77;0.52;;;27.10;73.60;;;33.09;53.53;102160.72;5033919;27;97514;-75
2021/07/20 10:03:20;;;;;;;1.65;0.55;;;27.50;73.90;;;32.62;54.81;102154.25;5035423;27;96929;-74
2021/07/20 10:06:03;;;;;;;0.47;0.40;;;27.60;73.40;;;32.38;55.57;102162.88;5035128;27;97282;-73
2021/07/20 10:08:41;;;;;;;2.53;0.32;;;27.60;73.60;;;32.00;56.62;102166.88;5038259;27;96707;-75
2021/07/20 10:11:22;;;;;;;1.20;0.55;;;27.50;73.40;;;31.67;56.92;102164.03;5041633;27;97030;-75
2021/07/20 10:14:17;;;;;;;1.90;0.57;;;27.40;73.40;;;31.42;57.19;102171.78;5034507;27;97020;-75
2021/07/20 10:16:58;;;;;;;1.08;0.98;;;27.10;73.20;;;31.43;57.38;102173.38;5034155;27;97653;-75
2021/07/20 10:19:39;;;;;;;0.63;0.60;;;26.90;74.10;;;31.99;56.17;102168.09;5037279;27;96735;-74
2021/07/20 10:22:15;;;;;;;2.72;0.38;;;26.90;74.40;;;32.19;56.18;102171.84;5040686;27;97058;-73
2021/07/20 10:24:55;;;;;;;0.90;0.20;;;27.10;75.00;;;32.52;56.04;102162.72;5035301;27;97866;-74
2021/07/20 10:27:37;;;;;;;0.15;0.15;;;27.20;75.30;;;32.91;55.61;102168.53;5033187;27;96850;-74
2021/07/20 10:30:11;;;;;;;0.17;0.17;;;27.50;75.40;;;33.13;56.09;102165.00;5035942;27;97480;-75
2021/07/20 10:32:56;;;;;;;0.63;0.55;;;27.80;75.50;;;33.43;56.00;102161.38;5039734;27;96785;-73
2021/07/20 10:35:36;;;;;;;2.72;1.17;;;28.20;75.30;;;33.79;55.55;102162.34;5035299;27;99578;-75
2021/07/20 10:38:12;;;;;;;0.73;0.40;;;28.50;75.10;;;34.12;54.91;102161.31;5034616;27;97705;-75
2021/07/20 10:40:56;;;;;;;0.30;0.28;;;28.70;74.90;;;34.66;54.30;102155.00;5036725;27;96750;-75
2021/07/20 10:43:33;;;;;;;1.52;0.38;;;29.10;74.80;;;34.33;55.14;102162.47;5039691;27;97092;-75
2021/07/20 10:46:07;;;;;;;9.48;1.77;;;29.30;73.90;;;34.09;55.69;102159.38;5042640;27;97016;-75
2021/07/20 10:48:46;;;;;;;0.05;0.05;;;29.20;73.80;;;33.82;56.25;102161.50;5038325;27;97655;-74
2021/07/20 10:51:22;;;;;;;0.65;0.65;;;29.10;73.80;;;34.24;54.98;102155.91;5038438;27;97619;-75
2021/07/20 10:54:05;;;;;;;0.32;0.30;;;29.20;73.80;;;34.35;55.13;102159.25;5036991;27;97529;-74